Archival Weather

Republic

Farmingdale, New York (KFRG)

Report from: Wednesday, February 14, 2024 2:53 PM EST
Current time: Monday, June 24, 2024 4:55 AM EDT

Current weather – Weather history – Daily summaries
Weather forecast

Temperature1.7°C (35.1°F)
Wind chill-3.4°C (25.9°F)
Dew point-11.7°C (10.9°F)
Winds 12 kts (6.2 m/s, 13.8 mph) West-Northwest (300°)
Wind gusts 27 kts (13.9 m/s, 31.1 mph)
Peak wind 31 kts (15.9 m/s, 35.7 mph) Northwest (320°) at 19:28
Visibility10 mi. (16.1 km)
Clouds Sky clear
Altimeter29.99 in.Hg (1016 mB)
Relative humidity36 %
Density altitude-1,657 ft. (-505 m)
Sea-level pressure101.6 kPa (1016 mB, 29.99 in.Hg)
Remarks Automated weather observing station without precipitation discriminator
Flight conditions Visual Meteorological Conditions
Raw dataKFRG 141953Z 30012G27KT 10SM CLR 02/M12 A2999 RMK AO1 PK WND 32031/1928 SLP157 T00171117
An error has occurred. This application may no longer respond until reloaded. Reload 🗙